sensor_id;sensor_type;location;lat;lon;timestamp;temperature;humidity
23079;DHT22;11707;50.830;4.364;2022-08-05T00:01:15;21.00;99.90
23079;DHT22;11707;50.830;4.364;2022-08-05T00:03:41;21.10;99.90
23079;DHT22;11707;50.830;4.364;2022-08-05T00:06:07;21.00;99.90
23079;DHT22;11707;50.830;4.364;2022-08-05T00:08:33;21.10;99.90
23079;DHT22;11707;50.830;4.364;2022-08-05T00:11:02;21.10;99.90
23079;DHT22;11707;50.830;4.364;2022-08-05T00:13:33;21.10;99.90
23079;DHT22;11707;50.830;4.364;2022-08-05T00:15:58;21.00;99.90
23079;DHT22;11707;50.830;4.364;2022-08-05T00:18:24;21.10;99.90
23079;DHT22;11707;50.830;4.364;2022-08-05T00:20:50;21.00;99.90
23079;DHT22;11707;50.830;4.364;2022-08-05T00:23:16;20.80;99.90
23079;DHT22;11707;50.830;4.364;2022-08-05T00:25:42;20.70;99.90
23079;DHT22;11707;50.830;4.364;2022-08-05T00:28:08;20.70;99.90
23079;DHT22;11707;50.830;4.364;2022-08-05T00:30:33;20.70;99.90
23079;DHT22;11707;50.830;4.364;2022-08-05T00:32:59;20.70;99.90
23079;DHT22;11707;50.830;4.364;2022-08-05T00:35:25;20.70;99.90
23079;DHT22;11707;50.830;4.364;2022-08-05T00:37:50;20.70;99.90
23079;DHT22;11707;50.830;4.364;2022-08-05T00:40:17;20.70;99.90
23079;DHT22;11707;50.830;4.364;2022-08-05T00:42:42;20.80;99.90
23079;DHT22;11707;50.830;4.364;2022-08-05T00:45:08;20.80;99.90
23079;DHT22;11707;50.830;4.364;2022-08-05T00:47:34;20.90;99.90
23079;DHT22;11707;50.830;4.364;2022-08-05T00:50:00;21.00;99.90
23079;DHT22;11707;50.830;4.364;2022-08-05T00:52:26;21.00;99.90
23079;DHT22;11707;50.830;4.364;2022-08-05T00:54:52;21.00;99.90
23079;DHT22;11707;50.830;4.364;2022-08-05T00:57:17;20.90;99.90
23079;DHT22;11707;50.830;4.364;2022-08-05T00:59:43;20.90;99.90
23079;DHT22;11707;50.830;4.364;2022-08-05T01:02:09;20.90;99.90
23079;DHT22;11707;50.830;4.364;2022-08-05T01:04:35;20.80;99.90
23079;DHT22;11707;50.830;4.364;2022-08-05T01:07:00;20.80;99.90
23079;DHT22;11707;50.830;4.364;2022-08-05T01:09:26;20.50;99.90
23079;DHT22;11707;50.830;4.364;2022-08-05T01:11:54;20.40;99.90
23079;DHT22;11707;50.830;4.364;2022-08-05T01:14:34;20.00;99.90
23079;DHT22;11707;50.830;4.364;2022-08-05T01:17:07;19.80;99.90
23079;DHT22;11707;50.830;4.364;2022-08-05T01:19:40;19.60;99.90
23079;DHT22;11707;50.830;4.364;2022-08-05T01:28:14;19.70;99.90
23079;DHT22;11707;50.830;4.364;2022-08-05T01:30:47;19.70;99.90
23079;DHT22;11707;50.830;4.364;2022-08-05T01:33:16;19.80;99.90
23079;DHT22;11707;50.830;4.364;2022-08-05T01:35:44;19.70;99.90
23079;DHT22;11707;50.830;4.364;2022-08-05T01:38:12;19.70;99.90
23079;DHT22;11707;50.830;4.364;2022-08-05T01:40:39;19.60;99.90
23079;DHT22;11707;50.830;4.364;2022-08-05T01:43:06;19.70;99.90
23079;DHT22;11707;50.830;4.364;2022-08-05T01:45:34;19.80;99.90
23079;DHT22;11707;50.830;4.364;2022-08-05T01:48:02;19.90;99.90
23079;DHT22;11707;50.830;4.364;2022-08-05T01:50:30;20.00;99.90
23079;DHT22;11707;50.830;4.364;2022-08-05T01:53:02;20.00;99.90
23079;DHT22;11707;50.830;4.364;2022-08-05T01:55:31;20.00;99.90
23079;DHT22;11707;50.830;4.364;2022-08-05T01:57:57;20.10;99.90
23079;DHT22;11707;50.830;4.364;2022-08-05T02:00:24;20.10;99.90
23079;DHT22;11707;50.830;4.364;2022-08-05T02:03:05;20.20;99.90
23079;DHT22;11707;50.830;4.364;2022-08-05T02:05:33;20.10;99.90
23079;DHT22;11707;50.830;4.364;2022-08-05T02:08:01;20.10;99.90
23079;DHT22;11707;50.830;4.364;2022-08-05T02:10:32;20.20;99.90
23079;DHT22;11707;50.830;4.364;2022-08-05T02:13:26;20.20;99.90
23079;DHT22;11707;50.830;4.364;2022-08-05T02:16:20;20.30;99.90
23079;DHT22;11707;50.830;4.364;2022-08-05T02:18:57;20.20;99.90
23079;DHT22;11707;50.830;4.364;2022-08-05T02:21:28;20.30;99.90
23079;DHT22;11707;50.830;4.364;2022-08-05T02:23:58;20.30;99.90
23079;DHT22;11707;50.830;4.364;2022-08-05T02:26:35;20.30;99.90
23079;DHT22;11707;50.830;4.364;2022-08-05T02:29:05;20.30;99.90
23079;DHT22;11707;50.830;4.364;2022-08-05T02:31:34;20.30;99.90
23079;DHT22;11707;50.830;4.364;2022-08-05T02:34:04;20.40;99.90
23079;DHT22;11707;50.830;4.364;2022-08-05T02:36:34;20.40;99.90
23079;DHT22;11707;50.830;4.364;2022-08-05T02:39:02;20.40;99.90
23079;DHT22;11707;50.830;4.364;2022-08-05T02:41:30;20.40;99.90
23079;DHT22;11707;50.830;4.364;2022-08-05T02:43:57;20.30;99.90
23079;DHT22;11707;50.830;4.364;2022-08-05T02:46:24;20.40;99.90
23079;DHT22;11707;50.830;4.364;2022-08-05T02:48:51;20.30;99.90
23079;DHT22;11707;50.830;4.364;2022-08-05T02:51:18;20.30;99.90
23079;DHT22;11707;50.830;4.364;2022-08-05T02:53:44;20.20;99.90
23079;DHT22;11707;50.830;4.364;2022-08-05T02:56:12;20.20;99.90
23079;DHT22;11707;50.830;4.364;2022-08-05T02:58:39;20.10;99.90
23079;DHT22;11707;50.830;4.364;2022-08-05T03:01:13;20.10;99.90
23079;DHT22;11707;50.830;4.364;2022-08-05T03:03:41;20.20;99.90
23079;DHT22;11707;50.830;4.364;2022-08-05T03:06:09;20.30;99.90
23079;DHT22;11707;50.830;4.364;2022-08-05T03:08:36;20.30;99.90
23079;DHT22;11707;50.830;4.364;2022-08-05T03:11:02;20.30;99.90
23079;DHT22;11707;50.830;4.364;2022-08-05T03:13:27;20.20;99.90
23079;DHT22;11707;50.830;4.364;2022-08-05T03:15:53;20.30;99.90
23079;DHT22;11707;50.830;4.364;2022-08-05T03:18:18;20.20;99.90
23079;DHT22;11707;50.830;4.364;2022-08-05T03:20:44;20.10;99.90
23079;DHT22;11707;50.830;4.364;2022-08-05T03:23:10;20.20;99.90
23079;DHT22;11707;50.830;4.364;2022-08-05T03:25:37;20.20;99.90
23079;DHT22;11707;50.830;4.364;2022-08-05T03:28:05;20.20;99.90
23079;DHT22;11707;50.830;4.364;2022-08-05T03:30:32;20.20;99.90
23079;DHT22;11707;50.830;4.364;2022-08-05T03:33:02;20.10;99.90
23079;DHT22;11707;50.830;4.364;2022-08-05T03:35:28;20.10;99.90
23079;DHT22;11707;50.830;4.364;2022-08-05T03:37:58;20.10;99.90
23079;DHT22;11707;50.830;4.364;2022-08-05T03:40:25;20.00;99.90
23079;DHT22;11707;50.830;4.364;2022-08-05T03:42:51;20.00;99.90
23079;DHT22;11707;50.830;4.364;2022-08-05T03:45:17;20.10;99.90
23079;DHT22;11707;50.830;4.364;2022-08-05T03:47:42;20.00;99.90
23079;DHT22;11707;50.830;4.364;2022-08-05T03:50:08;19.90;99.90
23079;DHT22;11707;50.830;4.364;2022-08-05T03:52:40;19.80;99.90
23079;DHT22;11707;50.830;4.364;2022-08-05T03:55:11;19.80;99.90
23079;DHT22;11707;50.830;4.364;2022-08-05T03:57:39;19.80;99.90
23079;DHT22;11707;50.830;4.364;2022-08-05T04:00:09;19.80;99.90
23079;DHT22;11707;50.830;4.364;2022-08-05T04:02:36;19.80;99.90
23079;DHT22;11707;50.830;4.364;2022-08-05T04:05:03;19.70;99.90
23079;DHT22;11707;50.830;4.364;2022-08-05T04:07:31;19.70;99.90
23079;DHT22;11707;50.830;4.364;2022-08-05T04:09:58;19.70;99.90
23079;DHT22;11707;50.830;4.364;2022-08-05T04:12:24;19.60;99.90
23079;DHT22;11707;50.830;4.364;2022-08-05T04:14:50;19.60;99.90
23079;DHT22;11707;50.830;4.364;2022-08-05T04:17:16;19.50;99.90
23079;DHT22;11707;50.830;4.364;2022-08-05T04:19:46;19.60;99.90
23079;DHT22;11707;50.830;4.364;2022-08-05T04:22:13;19.70;99.90
23079;DHT22;11707;50.830;4.364;2022-08-05T04:24:45;19.70;99.90
23079;DHT22;11707;50.830;4.364;2022-08-05T04:27:12;19.70;99.90
23079;DHT22;11707;50.830;4.364;2022-08-05T04:29:38;19.60;99.90
23079;DHT22;11707;50.830;4.364;2022-08-05T04:32:04;19.70;99.90
23079;DHT22;11707;50.830;4.364;2022-08-05T04:34:30;19.70;99.90
23079;DHT22;11707;50.830;4.364;2022-08-05T04:36:56;19.80;99.90
23079;DHT22;11707;50.830;4.364;2022-08-05T04:39:22;19.80;99.90
23079;DHT22;11707;50.830;4.364;2022-08-05T04:41:48;19.70;99.90
23079;DHT22;11707;50.830;4.364;2022-08-05T04:44:14;19.70;99.90
23079;DHT22;11707;50.830;4.364;2022-08-05T04:46:40;19.70;99.90
23079;DHT22;11707;50.830;4.364;2022-08-05T04:49:06;19.70;99.90
23079;DHT22;11707;50.830;4.364;2022-08-05T04:51:32;19.70;99.90
23079;DHT22;11707;50.830;4.364;2022-08-05T04:53:58;19.70;99.90
23079;DHT22;11707;50.830;4.364;2022-08-05T04:56:24;19.70;99.90
23079;DHT22;11707;50.830;4.364;2022-08-05T04:58:50;19.80;99.90
23079;DHT22;11707;50.830;4.364;2022-08-05T05:01:16;19.80;99.90
23079;DHT22;11707;50.830;4.364;2022-08-05T05:03:41;19.60;99.90
23079;DHT22;11707;50.830;4.364;2022-08-05T05:06:13;19.70;99.90
23079;DHT22;11707;50.830;4.364;2022-08-05T05:08:39;19.60;99.90
23079;DHT22;11707;50.830;4.364;2022-08-05T05:11:05;19.70;99.90
23079;DHT22;11707;50.830;4.364;2022-08-05T05:13:31;19.60;99.90
23079;DHT22;11707;50.830;4.364;2022-08-05T05:15:57;19.70;99.90
23079;DHT22;11707;50.830;4.364;2022-08-05T05:18:23;19.70;99.90
23079;DHT22;11707;50.830;4.364;2022-08-05T05:20:49;19.70;99.90
23079;DHT22;11707;50.830;4.364;2022-08-05T05:23:14;19.60;99.90
23079;DHT22;11707;50.830;4.364;2022-08-05T05:25:41;19.70;99.90
23079;DHT22;11707;50.830;4.364;2022-08-05T05:28:11;19.70;99.90
23079;DHT22;11707;50.830;4.364;2022-08-05T05:30:37;19.60;99.90
23079;DHT22;11707;50.830;4.364;2022-08-05T05:33:04;19.60;99.90
23079;DHT22;11707;50.830;4.364;2022-08-05T05:35:32;19.70;99.90
23079;DHT22;11707;50.830;4.364;2022-08-05T05:37:59;19.80;99.90
23079;DHT22;11707;50.830;4.364;2022-08-05T05:40:26;19.80;99.90
23079;DHT22;11707;50.830;4.364;2022-08-05T05:42:52;19.90;99.90
23079;DHT22;11707;50.830;4.364;2022-08-05T05:45:19;20.00;99.90
23079;DHT22;11707;50.830;4.364;2022-08-05T05:47:45;20.00;99.90
23079;DHT22;11707;50.830;4.364;2022-08-05T05:50:13;19.70;99.90
23079;DHT22;11707;50.830;4.364;2022-08-05T05:52:40;19.60;99.90
23079;DHT22;11707;50.830;4.364;2022-08-05T05:55:08;19.60;99.90
23079;DHT22;11707;50.830;4.364;2022-08-05T05:57:35;19.60;99.90
23079;DHT22;11707;50.830;4.364;2022-08-05T06:00:02;19.70;99.90
23079;DHT22;11707;50.830;4.364;2022-08-05T06:02:28;19.70;99.90
23079;DHT22;11707;50.830;4.364;2022-08-05T06:04:54;19.60;99.90
23079;DHT22;11707;50.830;4.364;2022-08-05T06:07:19;19.70;99.90
23079;DHT22;11707;50.830;4.364;2022-08-05T06:09:45;19.70;99.90
23079;DHT22;11707;50.830;4.364;2022-08-05T06:12:11;19.80;99.90
23079;DHT22;11707;50.830;4.364;2022-08-05T06:14:36;19.80;99.90
23079;DHT22;11707;50.830;4.364;2022-08-05T06:17:02;19.70;99.90
23079;DHT22;11707;50.830;4.364;2022-08-05T06:19:28;19.70;99.90
23079;DHT22;11707;50.830;4.364;2022-08-05T06:21:54;19.70;99.90
23079;DHT22;11707;50.830;4.364;2022-08-05T06:24:20;19.80;99.90
23079;DHT22;11707;50.830;4.364;2022-08-05T06:26:45;19.80;99.90
23079;DHT22;11707;50.830;4.364;2022-08-05T06:29:11;19.80;99.90
23079;DHT22;11707;50.830;4.364;2022-08-05T06:31:37;19.90;99.90
23079;DHT22;11707;50.830;4.364;2022-08-05T06:34:03;19.90;99.90
23079;DHT22;11707;50.830;4.364;2022-08-05T06:36:30;19.90;99.90
23079;DHT22;11707;50.830;4.364;2022-08-05T06:38:56;20.10;99.90
23079;DHT22;11707;50.830;4.364;2022-08-05T06:41:23;20.10;99.90
23079;DHT22;11707;50.830;4.364;2022-08-05T06:43:49;20.00;99.90
23079;DHT22;11707;50.830;4.364;2022-08-05T06:46:14;20.00;99.90
23079;DHT22;11707;50.830;4.364;2022-08-05T06:48:40;20.00;99.90
23079;DHT22;11707;50.830;4.364;2022-08-05T06:51:06;20.00;99.90
23079;DHT22;11707;50.830;4.364;2022-08-05T06:53:32;20.00;99.90
23079;DHT22;11707;50.830;4.364;2022-08-05T06:55:59;20.00;99.90
23079;DHT22;11707;50.830;4.364;2022-08-05T06:58:28;20.20;99.90
23079;DHT22;11707;50.830;4.364;2022-08-05T07:00:53;20.20;99.90
23079;DHT22;11707;50.830;4.364;2022-08-05T07:03:19;20.40;99.90
23079;DHT22;11707;50.830;4.364;2022-08-05T07:05:45;20.50;99.90
23079;DHT22;11707;50.830;4.364;2022-08-05T07:08:10;20.40;99.90
23079;DHT22;11707;50.830;4.364;2022-08-05T07:10:37;20.60;99.90
23079;DHT22;11707;50.830;4.364;2022-08-05T07:13:02;20.80;99.90
23079;DHT22;11707;50.830;4.364;2022-08-05T07:15:47;20.70;99.90
23079;DHT22;11707;50.830;4.364;2022-08-05T07:18:31;20.60;99.90
23079;DHT22;11707;50.830;4.364;2022-08-05T07:20:57;20.60;99.90
23079;DHT22;11707;50.830;4.364;2022-08-05T07:23:22;20.60;99.90
23079;DHT22;11707;50.830;4.364;2022-08-05T07:25:48;20.50;99.90
23079;DHT22;11707;50.830;4.364;2022-08-05T07:28:14;20.40;99.90
23079;DHT22;11707;50.830;4.364;2022-08-05T07:30:40;20.60;99.90
23079;DHT22;11707;50.830;4.364;2022-08-05T07:33:10;20.80;99.90
23079;DHT22;11707;50.830;4.364;2022-08-05T07:35:37;21.00;99.90
23079;DHT22;11707;50.830;4.364;2022-08-05T07:38:03;21.10;99.90
23079;DHT22;11707;50.830;4.364;2022-08-05T07:40:29;21.20;99.90
23079;DHT22;11707;50.830;4.364;2022-08-05T07:42:55;21.20;99.90
23079;DHT22;11707;50.830;4.364;2022-08-05T07:45:21;21.10;99.90
23079;DHT22;11707;50.830;4.364;2022-08-05T07:47:46;20.90;99.90
23079;DHT22;11707;50.830;4.364;2022-08-05T07:50:12;20.70;99.90
23079;DHT22;11707;50.830;4.364;2022-08-05T07:52:39;20.60;99.90
23079;DHT22;11707;50.830;4.364;2022-08-05T07:55:05;20.70;99.90
23079;DHT22;11707;50.830;4.364;2022-08-05T07:57:32;20.60;99.90
23079;DHT22;11707;50.830;4.364;2022-08-05T07:59:58;20.60;99.90
23079;DHT22;11707;50.830;4.364;2022-08-05T08:02:25;20.60;99.90
23079;DHT22;11707;50.830;4.364;2022-08-05T08:04:51;20.70;99.90
23079;DHT22;11707;50.830;4.364;2022-08-05T08:07:18;21.00;99.90
23079;DHT22;11707;50.830;4.364;2022-08-05T08:09:44;21.30;99.90
23079;DHT22;11707;50.830;4.364;2022-08-05T08:12:10;21.40;99.90
23079;DHT22;11707;50.830;4.364;2022-08-05T08:14:38;21.60;99.90
23079;DHT22;11707;50.830;4.364;2022-08-05T08:17:04;21.60;99.90
23079;DHT22;11707;50.830;4.364;2022-08-05T08:19:35;21.80;99.90
23079;DHT22;11707;50.830;4.364;2022-08-05T08:22:01;21.60;99.90
23079;DHT22;11707;50.830;4.364;2022-08-05T08:24:27;21.60;99.90
23079;DHT22;11707;50.830;4.364;2022-08-05T08:26:52;21.70;99.90
23079;DHT22;11707;50.830;4.364;2022-08-05T08:29:18;21.80;99.90
23079;DHT22;11707;50.830;4.364;2022-08-05T08:31:43;21.90;99.90
23079;DHT22;11707;50.830;4.364;2022-08-05T08:34:09;22.00;99.90
23079;DHT22;11707;50.830;4.364;2022-08-05T08:36:35;22.30;99.90
23079;DHT22;11707;50.830;4.364;2022-08-05T08:39:00;22.50;99.90
23079;DHT22;11707;50.830;4.364;2022-08-05T08:41:29;22.80;99.90
23079;DHT22;11707;50.830;4.364;2022-08-05T08:43:56;22.80;99.90
23079;DHT22;11707;50.830;4.364;2022-08-05T08:46:23;22.60;99.90
23079;DHT22;11707;50.830;4.364;2022-08-05T08:48:51;22.30;99.90
23079;DHT22;11707;50.830;4.364;2022-08-05T08:51:20;22.40;99.90
23079;DHT22;11707;50.830;4.364;2022-08-05T08:53:47;22.10;99.90
23079;DHT22;11707;50.830;4.364;2022-08-05T08:56:14;21.80;99.90
23079;DHT22;11707;50.830;4.364;2022-08-05T08:58:40;21.70;99.90
23079;DHT22;11707;50.830;4.364;2022-08-05T09:01:07;21.70;99.90
23079;DHT22;11707;50.830;4.364;2022-08-05T09:03:35;21.50;99.90
23079;DHT22;11707;50.830;4.364;2022-08-05T09:06:00;21.40;99.90
23079;DHT22;11707;50.830;4.364;2022-08-05T09:08:26;21.40;99.90
23079;DHT22;11707;50.830;4.364;2022-08-05T09:10:52;21.30;99.90
23079;DHT22;11707;50.830;4.364;2022-08-05T09:13:18;21.30;99.90
23079;DHT22;11707;50.830;4.364;2022-08-05T09:15:45;21.30;99.90
23079;DHT22;11707;50.830;4.364;2022-08-05T09:18:11;21.40;99.90
23079;DHT22;11707;50.830;4.364;2022-08-05T09:20:37;21.70;99.90
23079;DHT22;11707;50.830;4.364;2022-08-05T09:23:11;22.00;99.90
23079;DHT22;11707;50.830;4.364;2022-08-05T09:25:43;22.20;99.90
23079;DHT22;11707;50.830;4.364;2022-08-05T09:28:13;22.40;99.90
23079;DHT22;11707;50.830;4.364;2022-08-05T09:31:02;22.30;99.90
23079;DHT22;11707;50.830;4.364;2022-08-05T09:33:31;22.00;99.90
23079;DHT22;11707;50.830;4.364;2022-08-05T09:36:02;21.60;99.90
23079;DHT22;11707;50.830;4.364;2022-08-05T09:38:28;21.50;99.90
23079;DHT22;11707;50.830;4.364;2022-08-05T09:41:02;21.30;99.90
23079;DHT22;11707;50.830;4.364;2022-08-05T09:43:33;21.50;99.90
23079;DHT22;11707;50.830;4.364;2022-08-05T09:45:59;21.80;99.90
23079;DHT22;11707;50.830;4.364;2022-08-05T09:48:30;22.00;99.90
23079;DHT22;11707;50.830;4.364;2022-08-05T09:51:02;22.30;99.90
23079;DHT22;11707;50.830;4.364;2022-08-05T09:53:28;22.60;99.90
23079;DHT22;11707;50.830;4.364;2022-08-05T09:55:57;22.50;99.90
23079;DHT22;11707;50.830;4.364;2022-08-05T09:58:24;22.50;99.90
23079;DHT22;11707;50.830;4.364;2022-08-05T10:00:58;22.30;99.90
23079;DHT22;11707;50.830;4.364;2022-08-05T10:03:24;22.20;99.90
23079;DHT22;11707;50.830;4.364;2022-08-05T10:06:05;22.20;99.90
23079;DHT22;11707;50.830;4.364;2022-08-05T10:08:32;22.50;99.90
23079;DHT22;11707;50.830;4.364;2022-08-05T10:10:58;22.50;99.90
23079;DHT22;11707;50.830;4.364;2022-08-05T10:13:36;22.30;99.90
23079;DHT22;11707;50.830;4.364;2022-08-05T10:16:03;22.20;99.90
23079;DHT22;11707;50.830;4.364;2022-08-05T10:18:29;22.20;99.90
23079;DHT22;11707;50.830;4.364;2022-08-05T10:21:04;22.30;99.90
23079;DHT22;11707;50.830;4.364;2022-08-05T10:23:35;22.60;99.90
23079;DHT22;11707;50.830;4.364;2022-08-05T10:26:07;22.60;99.90
23079;DHT22;11707;50.830;4.364;2022-08-05T10:28:34;22.40;99.90
23079;DHT22;11707;50.830;4.364;2022-08-05T10:31:00;22.50;99.90
23079;DHT22;11707;50.830;4.364;2022-08-05T10:33:29;22.80;99.90
23079;DHT22;11707;50.830;4.364;2022-08-05T10:35:56;23.00;99.90
23079;DHT22;11707;50.830;4.364;2022-08-05T10:38:24;23.10;99.90
23079;DHT22;11707;50.830;4.364;2022-08-05T10:41:13;23.20;99.90
23079;DHT22;11707;50.830;4.364;2022-08-05T10:44:00;23.20;99.90
23079;DHT22;11707;50.830;4.364;2022-08-05T10:49:10;23.20;99.90
23079;DHT22;11707;50.830;4.364;2022-08-05T10:51:50;23.30;99.90
23079;DHT22;11707;50.830;4.364;2022-08-05T10:54:22;23.40;99.90
23079;DHT22;11707;50.830;4.364;2022-08-05T10:56:50;23.70;99.90
23079;DHT22;11707;50.830;4.364;2022-08-05T10:59:18;23.40;99.90
23079;DHT22;11707;50.830;4.364;2022-08-05T11:01:44;23.20;99.90
23079;DHT22;11707;50.830;4.364;2022-08-05T11:04:12;23.20;99.90
23079;DHT22;11707;50.830;4.364;2022-08-05T11:09:26;23.30;99.90
23079;DHT22;11707;50.830;4.364;2022-08-05T11:11:53;23.50;99.90
23079;DHT22;11707;50.830;4.364;2022-08-05T11:14:30;23.50;99.90
23079;DHT22;11707;50.830;4.364;2022-08-05T11:17:28;23.50;99.90
23079;DHT22;11707;50.830;4.364;2022-08-05T11:19:56;23.60;99.90
23079;DHT22;11707;50.830;4.364;2022-08-05T11:22:43;23.50;99.90
23079;DHT22;11707;50.830;4.364;2022-08-05T11:25:28;23.10;99.90
23079;DHT22;11707;50.830;4.364;2022-08-05T11:33:30;23.10;99.90
23079;DHT22;11707;50.830;4.364;2022-08-05T11:35:56;22.90;99.90
23079;DHT22;11707;50.830;4.364;2022-08-05T11:43:33;23.20;99.90
23079;DHT22;11707;50.830;4.364;2022-08-05T11:46:00;23.20;99.90
23079;DHT22;11707;50.830;4.364;2022-08-05T11:48:26;23.10;99.90
23079;DHT22;11707;50.830;4.364;2022-08-05T11:50:53;22.80;99.90
23079;DHT22;11707;50.830;4.364;2022-08-05T11:53:20;22.70;99.90
23079;DHT22;11707;50.830;4.364;2022-08-05T11:55:57;22.60;99.90
23079;DHT22;11707;50.830;4.364;2022-08-05T11:58:34;22.70;99.90
23079;DHT22;11707;50.830;4.364;2022-08-05T12:01:01;22.80;99.90
23079;DHT22;11707;50.830;4.364;2022-08-05T12:03:27;23.10;99.90
23079;DHT22;11707;50.830;4.364;2022-08-05T12:05:53;23.00;99.90
23079;DHT22;11707;50.830;4.364;2022-08-05T12:08:22;22.90;99.90
23079;DHT22;11707;50.830;4.364;2022-08-05T12:10:48;22.90;99.90
23079;DHT22;11707;50.830;4.364;2022-08-05T12:13:15;22.90;99.90
23079;DHT22;11707;50.830;4.364;2022-08-05T12:15:45;22.90;99.90
23079;DHT22;11707;50.830;4.364;2022-08-05T12:18:34;23.10;99.90
23079;DHT22;11707;50.830;4.364;2022-08-05T12:21:14;22.80;99.90
23079;DHT22;11707;50.830;4.364;2022-08-05T12:26:19;23.00;99.90
23079;DHT22;11707;50.830;4.364;2022-08-05T12:28:45;22.90;99.90
23079;DHT22;11707;50.830;4.364;2022-08-05T12:31:11;23.00;99.90
23079;DHT22;11707;50.830;4.364;2022-08-05T12:33:36;23.00;99.90
23079;DHT22;11707;50.830;4.364;2022-08-05T12:36:03;23.00;99.90
23079;DHT22;11707;50.830;4.364;2022-08-05T12:38:29;23.20;99.90
23079;DHT22;11707;50.830;4.364;2022-08-05T12:40:56;23.20;99.90
23079;DHT22;11707;50.830;4.364;2022-08-05T12:43:22;23.10;99.90
23079;DHT22;11707;50.830;4.364;2022-08-05T12:45:55;23.20;99.90
23079;DHT22;11707;50.830;4.364;2022-08-05T12:48:21;23.30;99.90
23079;DHT22;11707;50.830;4.364;2022-08-05T12:51:11;23.10;99.90
23079;DHT22;11707;50.830;4.364;2022-08-05T12:53:44;23.10;99.90
23079;DHT22;11707;50.830;4.364;2022-08-05T12:56:23;23.40;99.90
23079;DHT22;11707;50.830;4.364;2022-08-05T12:59:15;24.00;99.90
23079;DHT22;11707;50.830;4.364;2022-08-05T13:01:43;25.00;99.50
23079;DHT22;11707;50.830;4.364;2022-08-05T13:04:09;25.30;97.70
23079;DHT22;11707;50.830;4.364;2022-08-05T13:06:43;25.00;97.60
23079;DHT22;11707;50.830;4.364;2022-08-05T13:09:10;24.50;98.20
23079;DHT22;11707;50.830;4.364;2022-08-05T13:11:39;25.10;97.20
23079;DHT22;11707;50.830;4.364;2022-08-05T13:14:16;24.90;96.70
23079;DHT22;11707;50.830;4.364;2022-08-05T13:16:50;24.30;97.60
23079;DHT22;11707;50.830;4.364;2022-08-05T13:19:26;24.60;97.50
23079;DHT22;11707;50.830;4.364;2022-08-05T13:21:53;25.70;95.80
23079;DHT22;11707;50.830;4.364;2022-08-05T13:24:20;25.80;94.80
23079;DHT22;11707;50.830;4.364;2022-08-05T13:26:47;25.20;95.40
23079;DHT22;11707;50.830;4.364;2022-08-05T13:29:14;24.50;96.20
23079;DHT22;11707;50.830;4.364;2022-08-05T13:31:41;23.80;97.40
23079;DHT22;11707;50.830;4.364;2022-08-05T13:34:07;23.50;98.00
23079;DHT22;11707;50.830;4.364;2022-08-05T13:36:33;23.30;98.50
23079;DHT22;11707;50.830;4.364;2022-08-05T13:39:01;23.00;98.70
23079;DHT22;11707;50.830;4.364;2022-08-05T13:41:27;22.80;99.30
23079;DHT22;11707;50.830;4.364;2022-08-05T13:43:52;22.90;99.30
23079;DHT22;11707;50.830;4.364;2022-08-05T13:46:18;23.10;98.90
23079;DHT22;11707;50.830;4.364;2022-08-05T13:48:44;23.40;98.70
23079;DHT22;11707;50.830;4.364;2022-08-05T13:51:13;23.50;98.50
23079;DHT22;11707;50.830;4.364;2022-08-05T13:53:40;23.30;99.10
23079;DHT22;11707;50.830;4.364;2022-08-05T13:56:06;23.70;99.10
23079;DHT22;11707;50.830;4.364;2022-08-05T13:58:32;24.90;96.90
23079;DHT22;11707;50.830;4.364;2022-08-05T14:00:58;24.50;96.70
23079;DHT22;11707;50.830;4.364;2022-08-05T14:03:24;24.40;97.00
23079;DHT22;11707;50.830;4.364;2022-08-05T14:05:52;24.10;96.60
23079;DHT22;11707;50.830;4.364;2022-08-05T14:08:18;24.10;97.20
23079;DHT22;11707;50.830;4.364;2022-08-05T14:10:44;24.30;96.70
23079;DHT22;11707;50.830;4.364;2022-08-05T14:13:09;24.80;96.10
23079;DHT22;11707;50.830;4.364;2022-08-05T14:15:35;25.10;95.70
23079;DHT22;11707;50.830;4.364;2022-08-05T14:18:01;25.20;95.30
23079;DHT22;11707;50.830;4.364;2022-08-05T14:20:28;24.80;95.60
23079;DHT22;11707;50.830;4.364;2022-08-05T14:22:55;24.30;95.90
23079;DHT22;11707;50.830;4.364;2022-08-05T14:25:21;24.70;95.40
23079;DHT22;11707;50.830;4.364;2022-08-05T14:27:47;25.40;94.40
23079;DHT22;11707;50.830;4.364;2022-08-05T14:30:15;25.20;95.00
23079;DHT22;11707;50.830;4.364;2022-08-05T14:32:41;25.60;94.60
23079;DHT22;11707;50.830;4.364;2022-08-05T14:35:07;25.60;94.20
23079;DHT22;11707;50.830;4.364;2022-08-05T14:37:33;25.20;94.50
23079;DHT22;11707;50.830;4.364;2022-08-05T14:39:59;25.90;93.40
23079;DHT22;11707;50.830;4.364;2022-08-05T14:42:25;27.10;91.90
23079;DHT22;11707;50.830;4.364;2022-08-05T14:44:51;28.00;89.80
23079;DHT22;11707;50.830;4.364;2022-08-05T14:47:17;27.90;87.30
23079;DHT22;11707;50.830;4.364;2022-08-05T14:49:43;26.90;87.00
23079;DHT22;11707;50.830;4.364;2022-08-05T14:52:08;25.20;90.70
23079;DHT22;11707;50.830;4.364;2022-08-05T14:54:34;24.20;92.60
23079;DHT22;11707;50.830;4.364;2022-08-05T14:57:00;23.70;93.70
23079;DHT22;11707;50.830;4.364;2022-08-05T14:59:27;24.50;93.00
23079;DHT22;11707;50.830;4.364;2022-08-05T15:01:53;25.10;91.50
23079;DHT22;11707;50.830;4.364;2022-08-05T15:04:20;25.70;90.60
23079;DHT22;11707;50.830;4.364;2022-08-05T15:06:46;25.90;89.20
23079;DHT22;11707;50.830;4.364;2022-08-05T15:09:12;25.70;88.50
23079;DHT22;11707;50.830;4.364;2022-08-05T15:11:37;24.90;90.50
23079;DHT22;11707;50.830;4.364;2022-08-05T15:14:03;24.10;91.20
23079;DHT22;11707;50.830;4.364;2022-08-05T15:16:29;24.50;91.20
23079;DHT22;11707;50.830;4.364;2022-08-05T15:18:56;24.80;90.90
23079;DHT22;11707;50.830;4.364;2022-08-05T15:21:21;24.90;90.00
23079;DHT22;11707;50.830;4.364;2022-08-05T15:23:47;25.40;89.30
23079;DHT22;11707;50.830;4.364;2022-08-05T15:26:13;25.40;88.00
23079;DHT22;11707;50.830;4.364;2022-08-05T15:28:42;24.50;90.30
23079;DHT22;11707;50.830;4.364;2022-08-05T15:31:08;23.90;91.50
23079;DHT22;11707;50.830;4.364;2022-08-05T15:33:33;23.30;92.20
23079;DHT22;11707;50.830;4.364;2022-08-05T15:35:59;23.10;93.30
23079;DHT22;11707;50.830;4.364;2022-08-05T15:38:25;23.00;93.60
23079;DHT22;11707;50.830;4.364;2022-08-05T15:40:50;22.80;93.90
23079;DHT22;11707;50.830;4.364;2022-08-05T15:43:16;22.70;94.50
23079;DHT22;11707;50.830;4.364;2022-08-05T15:45:43;22.70;94.20
23079;DHT22;11707;50.830;4.364;2022-08-05T15:48:12;22.70;94.50
23079;DHT22;11707;50.830;4.364;2022-08-05T15:50:38;22.80;94.60
23079;DHT22;11707;50.830;4.364;2022-08-05T15:53:04;22.70;95.00
23079;DHT22;11707;50.830;4.364;2022-08-05T15:55:30;22.60;95.40
23079;DHT22;11707;50.830;4.364;2022-08-05T15:57:56;22.80;95.70
23079;DHT22;11707;50.830;4.364;2022-08-05T16:00:21;23.00;95.60